createdAt,value
2023-07-25T00:01:22.586Z,96983.34
2023-07-25T00:03:50.263Z,96988.06
2023-07-25T00:06:19.183Z,96988.53
2023-07-25T00:08:46.966Z,96991.75
2023-07-25T00:11:15.471Z,96996.78
2023-07-25T00:13:43.137Z,96986.72
2023-07-25T00:16:10.814Z,96988.69
2023-07-25T00:18:38.469Z,96988.09
2023-07-25T00:21:06.045Z,96990.09
2023-07-25T00:23:33.650Z,96985.97
2023-07-25T00:26:01.254Z,96996.50
2023-07-25T00:28:28.897Z,96996.22
2023-07-25T00:30:56.462Z,96993.47
2023-07-25T00:33:24.334Z,96992.69
2023-07-25T00:35:53.699Z,96999.72
2023-07-25T00:38:21.597Z,97005.69
2023-07-25T00:40:49.301Z,96996.50
2023-07-25T00:43:17.090Z,96993.75
2023-07-25T00:45:44.918Z,96996.50
2023-07-25T00:48:13.671Z,96996.03
2023-07-25T00:50:41.351Z,96990.53
2023-07-25T00:53:11.119Z,96988.56
2023-07-25T00:55:39.540Z,96989.78
2023-07-25T00:58:07.516Z,96990.25
2023-07-25T01:00:35.378Z,96983.09
2023-07-25T01:03:03.246Z,96990.13
2023-07-25T01:05:35.926Z,96996.50
2023-07-25T01:08:03.760Z,96999.28
2023-07-25T01:10:33.832Z,96989.06
2023-07-25T01:13:02.346Z,97007.09
2023-07-25T01:15:31.323Z,97007.09
2023-07-25T01:17:59.600Z,97004.50
2023-07-25T01:20:27.505Z,97011.06
2023-07-25T01:22:56.193Z,97017.34
2023-07-25T01:25:23.863Z,97019.75
2023-07-25T01:27:51.735Z,97012.59
2023-07-25T01:30:19.694Z,97031.22
2023-07-25T01:32:47.439Z,97027.25
2023-07-25T01:35:15.061Z,97035.31
2023-07-25T01:37:43.029Z,97035.19
2023-07-25T01:40:11.401Z,97029.81
2023-07-25T01:42:39.324Z,97037.75
2023-07-25T01:45:07.672Z,97040.81
2023-07-25T01:47:35.369Z,97041.44
2023-07-25T01:50:02.975Z,97031.50
2023-07-25T01:52:31.158Z,97035.16
2023-07-25T01:54:58.808Z,97035.75
2023-07-25T01:57:26.427Z,97040.31
2023-07-25T01:59:54.097Z,97044.28
2023-07-25T02:02:21.987Z,97043.22
2023-07-25T02:04:49.660Z,97039.69
2023-07-25T02:07:17.337Z,97038.16
2023-07-25T02:09:45.053Z,97038.56
2023-07-25T02:12:12.968Z,97041.94
2023-07-25T02:14:40.644Z,97039.78
2023-07-25T02:17:08.430Z,97029.97
2023-07-25T02:19:36.378Z,97038.56
2023-07-25T02:22:04.035Z,97024.00
2023-07-25T02:24:31.841Z,97035.88
2023-07-25T02:26:59.654Z,97039.81
2023-07-25T02:29:27.323Z,97033.97
2023-07-25T02:31:54.891Z,97043.59
2023-07-25T02:34:22.781Z,97037.53
2023-07-25T02:36:58.698Z,97037.09
2023-07-25T02:39:26.364Z,97036.41
2023-07-25T02:41:53.931Z,97040.50
2023-07-25T02:44:21.611Z,97033.13
2023-07-25T02:46:49.220Z,97037.34
2023-07-25T02:49:16.869Z,97040.47
2023-07-25T02:51:44.653Z,97040.53
2023-07-25T02:54:12.217Z,97042.72
2023-07-25T02:56:39.871Z,97033.78
2023-07-25T02:59:07.493Z,97041.16
2023-07-25T03:01:35.100Z,97048.97
2023-07-25T03:04:02.759Z,97044.84
2023-07-25T03:06:30.409Z,97048.13
2023-07-25T03:08:58.025Z,97039.47
2023-07-25T03:11:25.770Z,97042.81
2023-07-25T03:13:53.461Z,97034.53
2023-07-25T03:16:21.188Z,97043.03
2023-07-25T03:18:48.834Z,97045.97
2023-07-25T03:21:16.526Z,97046.69
2023-07-25T03:23:44.143Z,97041.19
2023-07-25T03:26:13.239Z,97041.97
2023-07-25T03:28:40.852Z,97044.47
2023-07-25T03:31:08.915Z,97050.28
2023-07-25T03:33:36.640Z,97049.38
2023-07-25T03:36:05.236Z,97049.38
2023-07-25T03:38:33.213Z,97050.78
2023-07-25T03:41:01.065Z,97043.28
2023-07-25T03:43:28.810Z,97045.59
2023-07-25T03:45:56.714Z,97046.13
2023-07-25T03:48:24.388Z,97043.59
2023-07-25T03:50:52.041Z,97043.47
2023-07-25T03:53:20.031Z,97038.03
2023-07-25T03:55:47.629Z,97048.09
2023-07-25T03:58:15.272Z,97042.13
2023-07-25T04:00:43.036Z,97051.63
2023-07-25T04:03:15.382Z,97045.00
2023-07-25T04:05:43.957Z,97043.00
2023-07-25T04:08:11.781Z,97047.56
2023-07-25T04:10:40.055Z,97043.38
2023-07-25T04:13:07.918Z,97058.69
2023-07-25T04:15:35.546Z,97043.97
2023-07-25T04:18:03.325Z,97044.88
2023-07-25T04:20:31.074Z,97038.88
2023-07-25T04:23:00.081Z,97039.59
2023-07-25T04:25:28.638Z,97045.47
2023-07-25T04:27:56.397Z,97041.22
2023-07-25T04:30:24.334Z,97041.97
2023-07-25T04:32:52.026Z,97037.63
2023-07-25T04:35:19.749Z,97042.66
2023-07-25T04:37:47.359Z,97043.25
2023-07-25T04:40:15.172Z,97038.94
2023-07-25T04:42:42.956Z,97038.41
2023-07-25T04:45:11.446Z,97044.91
2023-07-25T04:47:39.507Z,97045.94
2023-07-25T04:50:07.657Z,97042.63
2023-07-25T04:52:36.461Z,97043.78
2023-07-25T04:55:04.533Z,97041.75
2023-07-25T04:57:35.140Z,97041.13
2023-07-25T05:00:03.107Z,97044.84
2023-07-25T05:02:35.353Z,97028.34
2023-07-25T05:05:03.243Z,97039.81
2023-07-25T05:07:34.239Z,97033.38
2023-07-25T05:10:02.102Z,97023.81
2023-07-25T05:12:33.197Z,97039.13
2023-07-25T05:15:00.844Z,97039.53
2023-07-25T05:17:28.881Z,97047.78
2023-07-25T05:19:56.606Z,97051.22
2023-07-25T05:22:24.165Z,97036.84
2023-07-25T05:24:51.949Z,97054.72
2023-07-25T05:27:19.684Z,97053.88
2023-07-25T05:29:47.365Z,97049.09
2023-07-25T05:32:14.900Z,97053.53
2023-07-25T05:34:42.533Z,97045.38
2023-07-25T05:37:10.237Z,97054.97
2023-07-25T05:39:37.854Z,97041.28
2023-07-25T05:42:05.707Z,97056.38
2023-07-25T05:44:33.352Z,97047.22
2023-07-25T05:47:04.410Z,97050.56
2023-07-25T05:49:32.338Z,97046.38
2023-07-25T05:51:59.973Z,97040.00
2023-07-25T05:54:31.204Z,97051.19
2023-07-25T05:56:58.834Z,97046.31
2023-07-25T05:59:26.446Z,97049.38
2023-07-25T06:01:54.257Z,97051.97
2023-07-25T06:04:21.838Z,97042.72
2023-07-25T06:06:49.533Z,97044.88
2023-07-25T06:09:17.250Z,97046.50
2023-07-25T06:11:44.839Z,97046.91
2023-07-25T06:14:12.453Z,97029.19
2023-07-25T06:16:40.241Z,97044.91
2023-07-25T06:19:08.122Z,97034.78
2023-07-25T06:21:35.770Z,97049.28
2023-07-25T06:24:03.486Z,97045.31
2023-07-25T06:26:31.166Z,97051.31
2023-07-25T06:28:59.416Z,97054.75
2023-07-25T06:31:27.331Z,97044.56
2023-07-25T06:33:54.992Z,97047.25
2023-07-25T06:36:22.627Z,97044.84
2023-07-25T06:38:50.377Z,97042.03
2023-07-25T06:41:17.990Z,97043.84
2023-07-25T06:43:45.854Z,97051.38
2023-07-25T06:46:14.107Z,97047.84
2023-07-25T06:48:41.795Z,97045.97
2023-07-25T06:51:09.466Z,97038.41
2023-07-25T06:53:37.131Z,97047.03
2023-07-25T06:56:05.234Z,97054.19
2023-07-25T06:58:32.897Z,97047.97
2023-07-25T07:01:00.693Z,97049.59
2023-07-25T07:03:28.395Z,97042.53
2023-07-25T07:05:56.590Z,97044.38
2023-07-25T07:08:25.029Z,97049.47
2023-07-25T07:10:55.762Z,97054.63
2023-07-25T07:13:24.883Z,97047.44
2023-07-25T07:15:53.075Z,97042.84
2023-07-25T07:18:21.074Z,97055.50
2023-07-25T07:20:50.067Z,97053.06
2023-07-25T07:23:18.356Z,97041.66
2023-07-25T07:25:46.525Z,97048.00
2023-07-25T07:28:15.002Z,97042.94
2023-07-25T07:30:42.863Z,97042.38
2023-07-25T07:33:10.540Z,97042.06
2023-07-25T07:35:38.226Z,97048.63
2023-07-25T07:38:06.048Z,97037.09
2023-07-25T07:40:36.824Z,97050.44
2023-07-25T07:43:04.568Z,97047.84
2023-07-25T07:45:32.932Z,97042.13
2023-07-25T07:48:01.742Z,97035.72
2023-07-25T07:50:34.625Z,97041.34
2023-07-25T07:53:02.524Z,97040.09
2023-07-25T07:55:30.374Z,97042.94
2023-07-25T07:57:58.088Z,97038.25
2023-07-25T08:00:25.715Z,97046.53
2023-07-25T08:02:53.882Z,97047.25
2023-07-25T08:05:21.845Z,97048.47
2023-07-25T08:07:49.561Z,97051.34
2023-07-25T08:10:17.441Z,97043.47
2023-07-25T08:12:46.159Z,97048.47
2023-07-25T08:15:13.843Z,97043.66
2023-07-25T08:17:41.521Z,97041.28
2023-07-25T08:20:09.673Z,97029.38
2023-07-25T08:22:37.304Z,97043.44
2023-07-25T08:25:05.127Z,97039.38
2023-07-25T08:27:33.277Z,97030.72
2023-07-25T08:30:01.056Z,97045.84
2023-07-25T08:32:29.629Z,97032.84
2023-07-25T08:34:57.396Z,97049.31
2023-07-25T08:37:26.536Z,97043.13
2023-07-25T08:39:54.287Z,97029.25
2023-07-25T08:42:25.257Z,97046.56
2023-07-25T08:44:56.079Z,97044.63
2023-07-25T08:47:28.808Z,97054.03
2023-07-25T08:49:59.577Z,97055.50
2023-07-25T08:52:33.526Z,97058.69
2023-07-25T08:55:01.394Z,97043.53
2023-07-25T08:57:30.708Z,97048.97
2023-07-25T08:59:59.148Z,97047.97
2023-07-25T09:02:27.579Z,97046.22
2023-07-25T09:04:55.985Z,97043.16
2023-07-25T09:07:23.726Z,97035.75
2023-07-25T09:09:51.370Z,97035.25
2023-07-25T09:12:19.442Z,97038.38
2023-07-25T09:14:47.215Z,97032.00
2023-07-25T09:17:14.819Z,97036.88
2023-07-25T09:19:43.080Z,97051.84
2023-07-25T09:22:30.222Z,97062.03
2023-07-25T09:24:58.998Z,97055.75
2023-07-25T09:27:27.996Z,97049.88
2023-07-25T09:29:55.831Z,97044.75
2023-07-25T09:32:29.252Z,97058.97
2023-07-25T09:35:07.206Z,97059.25
2023-07-25T09:37:34.967Z,97037.69
2023-07-25T09:40:02.723Z,97051.91
2023-07-25T09:42:32.084Z,97054.59
2023-07-25T09:45:00.006Z,97044.47
2023-07-25T09:47:29.545Z,97048.59
2023-07-25T09:49:58.503Z,97044.78
2023-07-25T09:52:26.991Z,97043.69
2023-07-25T09:54:54.611Z,97032.47
2023-07-25T09:57:22.549Z,97042.16
2023-07-25T09:59:53.244Z,97045.06
2023-07-25T10:02:21.477Z,97036.38
2023-07-25T10:04:50.822Z,97048.50
2023-07-25T10:07:19.885Z,97045.34
2023-07-25T10:09:49.400Z,97037.69
2023-07-25T10:12:17.073Z,97045.81
2023-07-25T10:14:44.776Z,97033.56
2023-07-25T10:17:12.744Z,97022.56
2023-07-25T10:19:51.985Z,97032.63
2023-07-25T10:22:45.857Z,97037.13
2023-07-25T10:25:20.624Z,97043.63
2023-07-25T10:27:54.153Z,97032.88
2023-07-25T10:30:32.946Z,97038.31
2023-07-25T10:33:02.703Z,97036.16
2023-07-25T10:35:46.886Z,97026.41
2023-07-25T10:38:15.992Z,97016.16
2023-07-25T10:40:56.671Z,97026.94
2023-07-25T10:43:29.775Z,97020.69
2023-07-25T10:46:01.620Z,97024.47
2023-07-25T10:48:37.693Z,97022.00
2023-07-25T10:51:08.609Z,97029.09
2023-07-25T10:53:36.698Z,97024.41
2023-07-25T10:56:10.110Z,97035.91
2023-07-25T10:59:02.471Z,97032.66
2023-07-25T11:01:49.706Z,97023.66
2023-07-25T11:04:32.460Z,97036.19
2023-07-25T11:07:11.070Z,97024.06
2023-07-25T11:09:43.497Z,97021.94
2023-07-25T11:12:12.492Z,97020.28
2023-07-25T11:14:46.262Z,97011.84
2023-07-25T11:17:14.538Z,97021.38
2023-07-25T11:19:42.366Z,97019.34
2023-07-25T11:22:12.215Z,97019.06
2023-07-25T11:24:49.882Z,97016.03
2023-07-25T11:27:17.484Z,97007.94
2023-07-25T11:29:45.260Z,97007.88
2023-07-25T11:32:12.974Z,97012.72
2023-07-25T11:34:41.427Z,97009.28
2023-07-25T11:37:13.575Z,97016.28
2023-07-25T11:39:41.379Z,97004.75
2023-07-25T11:42:09.954Z,97009.31
2023-07-25T11:44:38.198Z,97002.03
2023-07-25T11:47:06.438Z,97000.03
2023-07-25T11:49:49.411Z,96998.97
2023-07-25T11:52:21.150Z,97003.25
2023-07-25T11:54:48.879Z,96985.91
2023-07-25T11:57:16.670Z,96995.03
2023-07-25T11:59:45.022Z,96996.91
2023-07-25T12:02:13.994Z,96998.66
2023-07-25T12:04:46.160Z,96999.84
2023-07-25T12:07:15.384Z,96998.13
2023-07-25T12:09:54.564Z,97007.19
2023-07-25T12:12:22.573Z,96995.59
2023-07-25T12:15:03.079Z,97000.16
2023-07-25T12:17:42.355Z,97001.66
2023-07-25T12:20:17.970Z,97002.16
2023-07-25T12:22:46.723Z,96997.69
2023-07-25T12:25:19.434Z,96992.63
2023-07-25T12:27:49.299Z,96995.69
2023-07-25T12:30:17.369Z,97000.72
2023-07-25T12:32:45.244Z,96987.63
2023-07-25T12:35:13.140Z,97007.06
2023-07-25T12:37:40.713Z,97003.25
2023-07-25T12:40:09.504Z,97000.19
2023-07-25T12:42:37.075Z,96996.19
2023-07-25T12:45:10.501Z,96992.66
2023-07-25T12:47:38.978Z,96979.03
2023-07-25T12:50:06.929Z,96984.31
2023-07-25T12:52:34.498Z,96981.03
2023-07-25T12:55:02.120Z,96991.91
2023-07-25T12:57:31.096Z,96995.16
2023-07-25T12:59:58.744Z,96986.06
2023-07-25T13:02:26.546Z,96990.59
2023-07-25T13:04:54.202Z,96999.19
2023-07-25T13:07:21.794Z,96988.56
2023-07-25T13:09:50.313Z,96993.88
2023-07-25T13:12:17.861Z,96987.31
2023-07-25T13:14:45.655Z,96989.34
2023-07-25T13:17:13.220Z,96992.59
2023-07-25T13:19:41.120Z,96990.34
2023-07-25T13:22:08.807Z,96978.25
2023-07-25T13:24:36.671Z,96981.50
2023-07-25T13:27:05.176Z,96984.03
2023-07-25T13:29:33.040Z,96976.72
2023-07-25T13:32:01.075Z,96970.41
2023-07-25T13:34:28.968Z,96978.25
2023-07-25T13:36:56.497Z,96976.22
2023-07-25T13:39:24.103Z,96979.22
2023-07-25T13:41:51.761Z,96983.50
2023-07-25T13:44:19.613Z,96972.41
2023-07-25T13:46:50.936Z,96971.41
2023-07-25T13:49:18.662Z,96972.16
2023-07-25T13:51:46.425Z,96972.16
2023-07-25T13:54:15.530Z,96978.97
2023-07-25T13:56:44.009Z,96981.47
2023-07-25T13:59:13.458Z,96983.75
2023-07-25T14:01:41.518Z,96980.94
2023-07-25T14:04:12.796Z,96990.28
2023-07-25T14:06:40.505Z,96990.00
2023-07-25T14:09:08.115Z,96985.94
2023-07-25T14:11:35.803Z,96989.47
2023-07-25T14:14:03.556Z,96975.06
2023-07-25T14:16:31.336Z,96984.66
2023-07-25T14:18:58.949Z,96979.59
2023-07-25T14:21:26.518Z,96988.38
2023-07-25T14:23:54.242Z,96990.38
2023-07-25T14:26:21.989Z,96984.06
2023-07-25T14:28:49.691Z,96993.34
2023-07-25T14:31:17.616Z,96986.78
2023-07-25T14:33:45.480Z,96990.03
2023-07-25T14:36:13.480Z,96982.97
2023-07-25T14:38:42.612Z,96980.19
2023-07-25T14:41:10.822Z,96986.91
2023-07-25T14:43:40.807Z,96982.38
2023-07-25T14:46:08.517Z,96992.91
2023-07-25T14:48:36.200Z,96993.13
2023-07-25T14:51:04.298Z,97002.41
2023-07-25T14:53:33.445Z,96997.38
2023-07-25T14:56:01.223Z,96994.56
2023-07-25T14:58:29.530Z,96997.53
2023-07-25T15:00:57.413Z,96994.56
2023-07-25T15:03:25.204Z,96998.56
2023-07-25T15:05:52.881Z,96996.25
2023-07-25T15:08:20.616Z,96998.00
2023-07-25T15:10:48.658Z,96988.59
2023-07-25T15:13:16.346Z,96987.34
2023-07-25T15:15:44.339Z,96998.63
2023-07-25T15:18:12.002Z,96993.22
2023-07-25T15:20:40.105Z,96986.66
2023-07-25T15:23:07.745Z,96992.88
2023-07-25T15:25:35.511Z,96999.91
2023-07-25T15:28:03.559Z,96991.78
2023-07-25T15:30:33.122Z,96998.00
2023-07-25T15:33:00.975Z,96995.94
2023-07-25T15:35:28.884Z,96995.88
2023-07-25T15:37:57.261Z,97003.09
2023-07-25T15:40:26.623Z,97000.56
2023-07-25T15:42:54.372Z,97006.28
2023-07-25T15:45:22.053Z,97011.56
2023-07-25T15:47:49.892Z,97014.03
2023-07-25T15:50:17.618Z,97009.00
2023-07-25T15:52:45.607Z,97014.47
2023-07-25T15:55:13.153Z,97009.09
2023-07-25T15:57:40.835Z,97014.13
2023-07-25T16:00:10.474Z,97013.56
2023-07-25T16:02:38.491Z,97011.19
2023-07-25T16:05:06.345Z,97018.97
2023-07-25T16:07:35.821Z,97024.63
2023-07-25T16:10:06.606Z,97029.84
2023-07-25T16:12:35.277Z,97031.31
2023-07-25T16:15:03.150Z,97022.19
2023-07-25T16:17:33.930Z,97021.63
2023-07-25T16:20:03.441Z,97023.53
2023-07-25T16:22:33.317Z,97026.78
2023-07-25T16:25:01.079Z,97022.44
2023-07-25T16:27:31.471Z,97020.94
2023-07-25T16:29:59.756Z,97023.88
2023-07-25T16:32:29.625Z,97034.84
2023-07-25T16:34:59.357Z,97032.25
2023-07-25T16:37:26.931Z,97032.19
2023-07-25T16:39:54.543Z,97036.38
2023-07-25T16:42:22.225Z,97028.00
2023-07-25T16:44:50.405Z,97032.00
2023-07-25T16:47:18.020Z,97035.44
2023-07-25T16:49:45.768Z,97038.59
2023-07-25T16:52:13.494Z,97030.50
2023-07-25T16:54:41.131Z,97044.03
2023-07-25T16:57:08.779Z,97047.44
2023-07-25T16:59:36.408Z,97037.63
2023-07-25T17:02:04.410Z,97043.38
2023-07-25T17:04:32.071Z,97046.03
2023-07-25T17:06:59.776Z,97049.06
2023-07-25T17:09:27.516Z,97049.94
2023-07-25T17:11:55.162Z,97049.63
2023-07-25T17:14:22.783Z,97043.53
2023-07-25T17:16:50.447Z,97052.28
2023-07-25T17:19:18.183Z,97042.97
2023-07-25T17:21:46.046Z,97046.69
2023-07-25T17:24:13.902Z,97050.84
2023-07-25T17:26:41.533Z,97048.25
2023-07-25T17:29:09.320Z,97049.97
2023-07-25T17:31:37.096Z,97046.19
2023-07-25T17:34:04.965Z,97055.66
2023-07-25T17:36:32.522Z,97047.56
2023-07-25T17:39:00.270Z,97047.47
2023-07-25T17:41:30.514Z,97060.34
2023-07-25T17:43:58.892Z,97047.94
2023-07-25T17:46:26.638Z,97043.38
2023-07-25T17:48:54.845Z,97046.13
2023-07-25T17:51:22.840Z,97050.13
2023-07-25T17:53:50.681Z,97053.66
2023-07-25T17:56:18.530Z,97053.84
2023-07-25T17:58:46.078Z,97052.31
2023-07-25T18:01:15.073Z,97055.53
2023-07-25T18:03:42.912Z,97043.16
2023-07-25T18:06:10.577Z,97051.91
2023-07-25T18:08:38.432Z,97052.88
2023-07-25T18:11:06.553Z,97053.63
2023-07-25T18:13:34.930Z,97045.72
2023-07-25T18:16:02.923Z,97037.03
2023-07-25T18:18:30.701Z,97051.38
2023-07-25T18:20:58.422Z,97055.09
2023-07-25T18:23:26.178Z,97051.00
2023-07-25T18:26:00.818Z,97052.66
2023-07-25T18:28:28.910Z,97055.28
2023-07-25T18:30:56.510Z,97045.50
2023-07-25T18:33:24.680Z,97052.69
2023-07-25T18:35:52.303Z,97047.66
2023-07-25T18:38:20.057Z,97047.66
2023-07-25T18:40:47.676Z,97034.53
2023-07-25T18:43:20.692Z,97045.13
2023-07-25T18:45:48.570Z,97041.09
2023-07-25T18:48:16.361Z,97043.72
2023-07-25T18:50:44.915Z,97042.97
2023-07-25T18:53:12.686Z,97034.41
2023-07-25T18:55:43.113Z,97031.13
2023-07-25T18:58:10.823Z,97032.59
2023-07-25T19:00:38.521Z,97030.28
2023-07-25T19:03:06.417Z,97031.84
2023-07-25T19:05:34.172Z,97029.84
2023-07-25T19:08:01.882Z,97032.28
2023-07-25T19:10:29.573Z,97034.25
2023-07-25T19:12:57.316Z,97041.19
2023-07-25T19:15:25.022Z,97038.44
2023-07-25T19:17:52.764Z,97035.25
2023-07-25T19:20:20.474Z,97033.44
2023-07-25T19:22:48.238Z,97035.13
2023-07-25T19:25:15.895Z,97037.78
2023-07-25T19:27:45.728Z,97036.72
2023-07-25T19:30:13.488Z,97043.47
2023-07-25T19:32:41.115Z,97037.53
2023-07-25T19:35:10.472Z,97041.06
2023-07-25T19:37:38.354Z,97030.38
2023-07-25T19:40:07.967Z,97039.88
2023-07-25T19:42:36.524Z,97037.28
2023-07-25T19:45:05.486Z,97045.06
2023-07-25T19:47:34.072Z,97047.53
2023-07-25T19:50:01.725Z,97044.66
2023-07-25T19:52:32.258Z,97046.50
2023-07-25T19:54:59.901Z,97051.09
2023-07-25T19:57:27.598Z,97055.06
2023-07-25T19:59:55.269Z,97047.44
2023-07-25T20:02:22.875Z,97042.88
2023-07-25T20:04:50.564Z,97038.44
2023-07-25T20:07:18.129Z,97051.91
2023-07-25T20:09:45.697Z,97045.03
2023-07-25T20:12:13.513Z,97055.28
2023-07-25T20:14:41.040Z,97058.16
2023-07-25T20:17:08.630Z,97053.91
2023-07-25T20:19:36.216Z,97050.25
2023-07-25T20:22:03.969Z,97061.41
2023-07-25T20:24:31.751Z,97062.63
2023-07-25T20:26:59.428Z,97053.50
2023-07-25T20:29:29.966Z,97055.78
2023-07-25T20:31:58.237Z,97062.78
2023-07-25T20:34:26.054Z,97052.44
2023-07-25T20:36:53.721Z,97057.16
2023-07-25T20:39:21.569Z,97051.50
2023-07-25T20:41:49.247Z,97048.59
2023-07-25T20:44:16.878Z,97048.47
2023-07-25T20:46:44.562Z,97041.59
2023-07-25T20:49:12.296Z,97043.75
2023-07-25T20:51:39.911Z,97054.00
2023-07-25T20:54:07.748Z,97045.28
2023-07-25T20:56:35.433Z,97035.78
2023-07-25T20:59:03.086Z,97037.03
2023-07-25T21:01:30.828Z,97036.72
2023-07-25T21:03:58.713Z,97033.06
2023-07-25T21:06:27.015Z,97035.22
2023-07-25T21:08:54.695Z,97028.66
2023-07-25T21:11:22.471Z,97026.97
2023-07-25T21:13:50.177Z,97035.81
2023-07-25T21:16:17.946Z,97030.78
2023-07-25T21:18:45.589Z,97029.41
2023-07-25T21:21:14.225Z,97024.69
2023-07-25T21:23:41.969Z,97020.25
2023-07-25T21:26:09.504Z,97025.00
2023-07-25T21:28:37.114Z,97034.16
2023-07-25T21:31:10.592Z,97036.13
2023-07-25T21:33:38.736Z,97029.22
2023-07-25T21:36:14.645Z,97039.34
2023-07-25T21:38:42.853Z,97048.63
2023-07-25T21:41:15.998Z,97053.22
2023-07-25T21:43:43.787Z,97039.78
2023-07-25T21:46:11.527Z,97047.41
2023-07-25T21:48:39.450Z,97043.13
2023-07-25T21:51:08.139Z,97040.84
2023-07-25T21:53:35.802Z,97035.19
2023-07-25T21:56:03.417Z,97043.25
2023-07-25T21:58:31.319Z,97051.19
2023-07-25T22:00:59.633Z,97047.84
2023-07-25T22:03:32.061Z,97046.47
2023-07-25T22:06:01.070Z,97055.28
2023-07-25T22:08:28.839Z,97036.66
2023-07-25T22:10:56.679Z,97044.59
2023-07-25T22:13:25.099Z,97052.97
2023-07-25T22:15:52.781Z,97056.50
2023-07-25T22:18:20.542Z,97052.22
2023-07-25T22:20:52.373Z,97054.22
2023-07-25T22:23:22.098Z,97068.56
2023-07-25T22:25:50.338Z,97058.63
2023-07-25T22:28:17.974Z,97058.31
2023-07-25T22:30:45.643Z,97056.47
2023-07-25T22:33:13.310Z,97059.22
2023-07-25T22:35:40.932Z,97056.94
2023-07-25T22:38:08.531Z,97052.81
2023-07-25T22:40:36.502Z,97064.25
2023-07-25T22:43:04.397Z,97056.88
2023-07-25T22:45:32.094Z,97061.63
2023-07-25T22:47:59.866Z,97060.88
2023-07-25T22:50:27.446Z,97062.22
2023-07-25T22:52:55.108Z,97057.03
2023-07-25T22:55:22.720Z,97060.88
2023-07-25T22:57:50.413Z,97064.94
2023-07-25T23:00:18.191Z,97066.50
2023-07-25T23:02:46.186Z,97060.72
2023-07-25T23:05:14.218Z,97062.53
2023-07-25T23:07:41.895Z,97054.75
2023-07-25T23:10:09.917Z,97064.19
2023-07-25T23:12:37.554Z,97062.03
2023-07-25T23:15:05.891Z,97063.28
2023-07-25T23:17:36.367Z,97058.66
2023-07-25T23:20:05.185Z,97069.66
2023-07-25T23:22:33.449Z,97063.09
2023-07-25T23:25:01.390Z,97062.91
2023-07-25T23:27:31.600Z,97065.31
2023-07-25T23:30:00.106Z,97066.69
2023-07-25T23:32:27.925Z,97064.06
2023-07-25T23:34:55.639Z,97065.31
2023-07-25T23:37:23.367Z,97063.47
2023-07-25T23:39:51.353Z,97062.91
2023-07-25T23:42:19.097Z,97059.53
2023-07-25T23:44:46.688Z,97064.69
2023-07-25T23:47:14.558Z,97066.97
2023-07-25T23:49:42.263Z,97059.66
2023-07-25T23:52:10.066Z,97060.22
2023-07-25T23:54:37.914Z,97046.84
2023-07-25T23:57:05.989Z,97059.47
2023-07-25T23:59:33.654Z,97052.16
